Portada
METAR-TAF:

METAR-TAF

Aeroports :

Munising, Michigan, Estats Units d'Amèrica

latitud: 46-24N, longitud: 086-39W, altitud: 187 m

Observació

L'informe es va fer fa 32 minuts, a les 06:56 UTC
Vent 22 kt del Nord amb ràfegues de 31 kt
Temperatura 2°C
Humitat 87%
Pressió 1009 hPa

METAR: KP53 300656Z AUTO 36022G31KT 02/00 A2980 RMK AO1 PK WND 36031/0649 SLP099 T00170000

Hora: 03:28 (07:28 UTC)


TAF: manca

Observacions i pronòstics meteorològics de més de 4000 aeroports (METAR i TAF).

Les estacions disponibles són els punts grocs i vermells al mapa.

Posi el ratolí al punt desitjat per veure el nom de l'estació.

Feu clic per veure les observacions i els pronòstics meteorològics.

Per canviar el mapa: feu clic els botons verds amb una creu de color negre per apropar; al botó verd amb un guió per allunyar la imatge; o en les fletxes verdes per a mapes adjacents.


METAR-TAF: